sensor_id;sensor_type;location;lat;lon;timestamp;P1;durP1;ratioP1;P2;durP2;ratioP2
24713;SDS011;12820;51.580;5.010;2022-10-13T00:03:15;17.08;;;8.95;;
24713;SDS011;12820;51.580;5.010;2022-10-13T00:08:19;17.67;;;9.32;;
24713;SDS011;12820;51.580;5.010;2022-10-13T00:13:22;22.42;;;10.27;;
24713;SDS011;12820;51.580;5.010;2022-10-13T00:18:24;22.08;;;9.63;;
24713;SDS011;12820;51.580;5.010;2022-10-13T00:23:29;18.85;;;9.15;;
24713;SDS011;12820;51.580;5.010;2022-10-13T00:28:34;24.27;;;9.80;;
24713;SDS011;12820;51.580;5.010;2022-10-13T00:33:36;23.35;;;9.35;;
24713;SDS011;12820;51.580;5.010;2022-10-13T00:38:38;17.95;;;9.48;;
24713;SDS011;12820;51.580;5.010;2022-10-13T00:43:50;19.60;;;9.93;;
24713;SDS011;12820;51.580;5.010;2022-10-13T00:49:12;17.70;;;9.50;;
24713;SDS011;12820;51.580;5.010;2022-10-13T00:54:21;22.77;;;9.70;;
24713;SDS011;12820;51.580;5.010;2022-10-13T00:59:26;22.23;;;9.77;;
24713;SDS011;12820;51.580;5.010;2022-10-13T01:04:31;17.63;;;10.18;;
24713;SDS011;12820;51.580;5.010;2022-10-13T01:09:35;20.85;;;10.05;;
24713;SDS011;12820;51.580;5.010;2022-10-13T01:25:14;21.70;;;9.77;;
24713;SDS011;12820;51.580;5.010;2022-10-13T01:30:36;23.20;;;10.07;;
24713;SDS011;12820;51.580;5.010;2022-10-13T01:35:54;20.83;;;10.43;;
24713;SDS011;12820;51.580;5.010;2022-10-13T01:41:17;19.75;;;9.48;;
24713;SDS011;12820;51.580;5.010;2022-10-13T01:51:49;19.55;;;10.02;;
24713;SDS011;12820;51.580;5.010;2022-10-13T01:56:53;20.73;;;10.02;;
24713;SDS011;12820;51.580;5.010;2022-10-13T02:02:14;18.52;;;9.60;;
24713;SDS011;12820;51.580;5.010;2022-10-13T02:12:48;19.45;;;9.88;;
24713;SDS011;12820;51.580;5.010;2022-10-13T02:17:54;17.75;;;8.95;;
24713;SDS011;12820;51.580;5.010;2022-10-13T02:22:58;20.30;;;8.88;;
24713;SDS011;12820;51.580;5.010;2022-10-13T02:28:03;18.20;;;9.25;;
24713;SDS011;12820;51.580;5.010;2022-10-13T02:33:16;22.95;;;8.55;;
24713;SDS011;12820;51.580;5.010;2022-10-13T02:38:18;22.13;;;8.27;;
24713;SDS011;12820;51.580;5.010;2022-10-13T02:43:20;18.58;;;8.55;;
24713;SDS011;12820;51.580;5.010;2022-10-13T02:48:22;20.40;;;8.55;;
24713;SDS011;12820;51.580;5.010;2022-10-13T02:53:23;17.35;;;8.35;;
24713;SDS011;12820;51.580;5.010;2022-10-13T02:58:27;17.63;;;8.30;;
24713;SDS011;12820;51.580;5.010;2022-10-13T03:03:29;20.67;;;7.97;;
24713;SDS011;12820;51.580;5.010;2022-10-13T03:08:32;21.05;;;9.05;;
24713;SDS011;12820;51.580;5.010;2022-10-13T03:13:35;17.98;;;7.97;;
24713;SDS011;12820;51.580;5.010;2022-10-13T03:18:40;15.93;;;8.43;;
24713;SDS011;12820;51.580;5.010;2022-10-13T03:23:42;18.63;;;7.40;;
24713;SDS011;12820;51.580;5.010;2022-10-13T03:28:48;17.95;;;7.85;;
24713;SDS011;12820;51.580;5.010;2022-10-13T03:33:51;18.23;;;8.18;;
24713;SDS011;12820;51.580;5.010;2022-10-13T03:38:53;19.30;;;8.15;;
24713;SDS011;12820;51.580;5.010;2022-10-13T03:43:55;19.23;;;8.38;;
24713;SDS011;12820;51.580;5.010;2022-10-13T03:48:57;19.13;;;7.75;;
24713;SDS011;12820;51.580;5.010;2022-10-13T03:53:59;17.50;;;6.85;;
24713;SDS011;12820;51.580;5.010;2022-10-13T03:59:01;17.75;;;7.93;;
24713;SDS011;12820;51.580;5.010;2022-10-13T04:04:05;18.30;;;7.28;;
24713;SDS011;12820;51.580;5.010;2022-10-13T04:09:08;21.67;;;8.35;;
24713;SDS011;12820;51.580;5.010;2022-10-13T04:14:10;15.77;;;7.85;;
24713;SDS011;12820;51.580;5.010;2022-10-13T04:19:12;14.13;;;7.68;;
24713;SDS011;12820;51.580;5.010;2022-10-13T04:24:15;17.67;;;8.35;;
24713;SDS011;12820;51.580;5.010;2022-10-13T04:29:18;18.98;;;8.32;;
24713;SDS011;12820;51.580;5.010;2022-10-13T04:34:25;16.65;;;8.57;;
24713;SDS011;12820;51.580;5.010;2022-10-13T04:39:28;20.63;;;9.13;;
24713;SDS011;12820;51.580;5.010;2022-10-13T04:44:30;17.92;;;8.68;;
24713;SDS011;12820;51.580;5.010;2022-10-13T04:49:33;18.58;;;9.20;;
24713;SDS011;12820;51.580;5.010;2022-10-13T04:54:36;19.85;;;8.90;;
24713;SDS011;12820;51.580;5.010;2022-10-13T04:59:38;19.30;;;9.10;;
24713;SDS011;12820;51.580;5.010;2022-10-13T05:04:40;23.30;;;9.27;;
24713;SDS011;12820;51.580;5.010;2022-10-13T05:09:42;22.85;;;9.68;;
24713;SDS011;12820;51.580;5.010;2022-10-13T05:14:46;22.63;;;8.85;;
24713;SDS011;12820;51.580;5.010;2022-10-13T05:19:48;22.80;;;10.05;;
24713;SDS011;12820;51.580;5.010;2022-10-13T05:24:50;20.08;;;9.63;;
24713;SDS011;12820;51.580;5.010;2022-10-13T05:29:52;18.65;;;9.43;;
24713;SDS011;12820;51.580;5.010;2022-10-13T05:34:54;21.73;;;10.10;;
24713;SDS011;12820;51.580;5.010;2022-10-13T05:39:56;23.05;;;9.05;;
24713;SDS011;12820;51.580;5.010;2022-10-13T05:44:59;24.10;;;9.27;;
24713;SDS011;12820;51.580;5.010;2022-10-13T05:50:01;18.08;;;9.57;;
24713;SDS011;12820;51.580;5.010;2022-10-13T05:55:04;23.00;;;9.68;;
24713;SDS011;12820;51.580;5.010;2022-10-13T06:00:13;24.77;;;9.57;;
24713;SDS011;12820;51.580;5.010;2022-10-13T06:05:17;18.05;;;9.10;;
24713;SDS011;12820;51.580;5.010;2022-10-13T06:10:26;23.92;;;9.10;;
24713;SDS011;12820;51.580;5.010;2022-10-13T06:15:28;22.75;;;9.05;;
24713;SDS011;12820;51.580;5.010;2022-10-13T06:20:31;19.67;;;9.48;;
24713;SDS011;12820;51.580;5.010;2022-10-13T06:25:33;25.33;;;10.10;;
24713;SDS011;12820;51.580;5.010;2022-10-13T06:30:37;22.63;;;9.93;;
24713;SDS011;12820;51.580;5.010;2022-10-13T06:35:39;19.13;;;9.35;;
24713;SDS011;12820;51.580;5.010;2022-10-13T06:40:45;23.63;;;10.70;;
24713;SDS011;12820;51.580;5.010;2022-10-13T06:45:47;27.40;;;10.60;;
24713;SDS011;12820;51.580;5.010;2022-10-13T06:50:49;22.35;;;10.00;;
24713;SDS011;12820;51.580;5.010;2022-10-13T06:55:54;19.08;;;10.00;;
24713;SDS011;12820;51.580;5.010;2022-10-13T07:00:57;23.63;;;10.63;;
24713;SDS011;12820;51.580;5.010;2022-10-13T07:06:00;22.77;;;10.75;;
24713;SDS011;12820;51.580;5.010;2022-10-13T07:11:07;21.75;;;10.55;;
24713;SDS011;12820;51.580;5.010;2022-10-13T07:16:16;22.38;;;10.80;;
24713;SDS011;12820;51.580;5.010;2022-10-13T07:21:18;22.85;;;10.02;;
24713;SDS011;12820;51.580;5.010;2022-10-13T07:26:21;20.38;;;10.80;;
24713;SDS011;12820;51.580;5.010;2022-10-13T07:31:23;26.13;;;11.85;;
24713;SDS011;12820;51.580;5.010;2022-10-13T07:36:25;28.40;;;10.80;;
24713;SDS011;12820;51.580;5.010;2022-10-13T07:41:28;21.20;;;11.88;;
24713;SDS011;12820;51.580;5.010;2022-10-13T07:46:30;23.35;;;11.20;;
24713;SDS011;12820;51.580;5.010;2022-10-13T07:51:32;26.63;;;11.27;;
24713;SDS011;12820;51.580;5.010;2022-10-13T07:56:34;22.65;;;11.40;;
24713;SDS011;12820;51.580;5.010;2022-10-13T08:01:36;24.42;;;11.07;;
24713;SDS011;12820;51.580;5.010;2022-10-13T08:06:39;22.17;;;10.73;;
24713;SDS011;12820;51.580;5.010;2022-10-13T08:11:42;20.85;;;10.23;;
24713;SDS011;12820;51.580;5.010;2022-10-13T08:16:44;24.33;;;11.45;;
24713;SDS011;12820;51.580;5.010;2022-10-13T08:21:52;25.83;;;11.45;;
24713;SDS011;12820;51.580;5.010;2022-10-13T08:27:00;23.38;;;10.77;;
24713;SDS011;12820;51.580;5.010;2022-10-13T08:32:02;25.75;;;11.70;;
24713;SDS011;12820;51.580;5.010;2022-10-13T08:37:04;21.42;;;11.30;;
24713;SDS011;12820;51.580;5.010;2022-10-13T08:42:19;25.98;;;10.80;;
24713;SDS011;12820;51.580;5.010;2022-10-13T08:47:27;25.63;;;11.00;;
24713;SDS011;12820;51.580;5.010;2022-10-13T08:52:42;30.85;;;11.20;;
24713;SDS011;12820;51.580;5.010;2022-10-13T08:57:49;20.75;;;10.63;;
24713;SDS011;12820;51.580;5.010;2022-10-13T09:02:53;21.85;;;9.35;;
24713;SDS011;12820;51.580;5.010;2022-10-13T09:08:18;23.88;;;10.60;;
24713;SDS011;12820;51.580;5.010;2022-10-13T09:13:23;24.17;;;10.48;;
24713;SDS011;12820;51.580;5.010;2022-10-13T09:18:28;21.55;;;10.02;;
24713;SDS011;12820;51.580;5.010;2022-10-13T09:23:32;19.27;;;10.05;;
24713;SDS011;12820;51.580;5.010;2022-10-13T09:28:38;20.88;;;10.02;;
24713;SDS011;12820;51.580;5.010;2022-10-13T09:33:41;17.85;;;9.40;;
24713;SDS011;12820;51.580;5.010;2022-10-13T09:38:44;20.52;;;9.98;;
24713;SDS011;12820;51.580;5.010;2022-10-13T09:59:45;26.63;;;11.10;;
24713;SDS011;12820;51.580;5.010;2022-10-13T10:04:51;25.80;;;11.20;;
24713;SDS011;12820;51.580;5.010;2022-10-13T10:09:55;21.88;;;10.93;;
24713;SDS011;12820;51.580;5.010;2022-10-13T10:15:14;23.27;;;10.98;;
24713;SDS011;12820;51.580;5.010;2022-10-13T10:25:58;27.60;;;11.60;;
24713;SDS011;12820;51.580;5.010;2022-10-13T10:42:42;24.63;;;11.88;;
24713;SDS011;12820;51.580;5.010;2022-10-13T10:47:41;27.08;;;12.32;;
24713;SDS011;12820;51.580;5.010;2022-10-13T10:52:52;22.10;;;11.60;;
24713;SDS011;12820;51.580;5.010;2022-10-13T11:08:45;21.17;;;11.48;;
24713;SDS011;12820;51.580;5.010;2022-10-13T11:13:56;20.92;;;10.25;;
24713;SDS011;12820;51.580;5.010;2022-10-13T11:19:02;20.23;;;11.15;;
24713;SDS011;12820;51.580;5.010;2022-10-13T11:45:14;23.25;;;9.43;;
24713;SDS011;12820;51.580;5.010;2022-10-13T11:50:34;21.98;;;9.43;;
24713;SDS011;12820;51.580;5.010;2022-10-13T11:55:51;20.13;;;8.88;;
24713;SDS011;12820;51.580;5.010;2022-10-13T12:01:05;17.83;;;8.32;;
24713;SDS011;12820;51.580;5.010;2022-10-13T12:11:29;19.60;;;8.77;;
24713;SDS011;12820;51.580;5.010;2022-10-13T12:16:34;21.33;;;8.23;;
24713;SDS011;12820;51.580;5.010;2022-10-13T12:21:46;15.73;;;8.55;;
24713;SDS011;12820;51.580;5.010;2022-10-13T12:26:50;18.45;;;8.55;;
24713;SDS011;12820;51.580;5.010;2022-10-13T12:31:53;14.63;;;7.15;;
24713;SDS011;12820;51.580;5.010;2022-10-13T12:37:31;23.20;;;8.65;;
24713;SDS011;12820;51.580;5.010;2022-10-13T12:42:27;15.02;;;8.52;;
24713;SDS011;12820;51.580;5.010;2022-10-13T12:47:34;17.05;;;9.10;;
24713;SDS011;12820;51.580;5.010;2022-10-13T12:52:39;15.82;;;9.15;;
24713;SDS011;12820;51.580;5.010;2022-10-13T12:57:43;19.08;;;9.20;;
24713;SDS011;12820;51.580;5.010;2022-10-13T13:02:52;15.77;;;8.25;;
24713;SDS011;12820;51.580;5.010;2022-10-13T13:07:56;19.05;;;8.82;;
24713;SDS011;12820;51.580;5.010;2022-10-13T13:13:11;19.52;;;9.50;;
24713;SDS011;12820;51.580;5.010;2022-10-13T13:18:28;14.70;;;8.40;;
24713;SDS011;12820;51.580;5.010;2022-10-13T13:23:32;18.98;;;9.23;;
24713;SDS011;12820;51.580;5.010;2022-10-13T13:28:37;16.17;;;8.85;;
24713;SDS011;12820;51.580;5.010;2022-10-13T13:33:44;14.25;;;8.20;;
24713;SDS011;12820;51.580;5.010;2022-10-13T13:38:47;19.23;;;8.90;;
24713;SDS011;12820;51.580;5.010;2022-10-13T13:43:49;18.92;;;10.15;;
24713;SDS011;12820;51.580;5.010;2022-10-13T13:48:51;20.10;;;10.32;;
24713;SDS011;12820;51.580;5.010;2022-10-13T13:53:54;21.40;;;9.73;;
24713;SDS011;12820;51.580;5.010;2022-10-13T13:58:56;19.40;;;9.80;;
24713;SDS011;12820;51.580;5.010;2022-10-13T14:03:58;17.27;;;9.60;;
24713;SDS011;12820;51.580;5.010;2022-10-13T14:09:00;19.42;;;9.82;;
24713;SDS011;12820;51.580;5.010;2022-10-13T14:14:05;20.77;;;8.88;;
24713;SDS011;12820;51.580;5.010;2022-10-13T14:19:07;19.30;;;10.75;;
24713;SDS011;12820;51.580;5.010;2022-10-13T14:24:10;20.70;;;11.80;;
24713;SDS011;12820;51.580;5.010;2022-10-13T14:29:12;23.02;;;11.23;;
24713;SDS011;12820;51.580;5.010;2022-10-13T14:34:15;27.13;;;15.17;;
24713;SDS011;12820;51.580;5.010;2022-10-13T14:39:17;26.58;;;14.63;;
24713;SDS011;12820;51.580;5.010;2022-10-13T14:44:19;24.45;;;15.00;;
24713;SDS011;12820;51.580;5.010;2022-10-13T14:49:21;28.33;;;15.43;;
24713;SDS011;12820;51.580;5.010;2022-10-13T14:54:24;21.95;;;13.48;;
24713;SDS011;12820;51.580;5.010;2022-10-13T14:59:26;22.98;;;11.10;;
24713;SDS011;12820;51.580;5.010;2022-10-13T15:04:28;21.67;;;13.35;;
24713;SDS011;12820;51.580;5.010;2022-10-13T15:09:31;26.92;;;13.82;;
24713;SDS011;12820;51.580;5.010;2022-10-13T15:14:53;21.83;;;12.68;;
24713;SDS011;12820;51.580;5.010;2022-10-13T15:19:55;21.58;;;12.70;;
24713;SDS011;12820;51.580;5.010;2022-10-13T15:24:57;23.30;;;13.95;;
24713;SDS011;12820;51.580;5.010;2022-10-13T15:29:59;20.73;;;12.52;;
24713;SDS011;12820;51.580;5.010;2022-10-13T15:35:01;21.80;;;13.20;;
24713;SDS011;12820;51.580;5.010;2022-10-13T15:40:04;29.58;;;15.00;;
24713;SDS011;12820;51.580;5.010;2022-10-13T15:45:06;28.60;;;14.40;;
24713;SDS011;12820;51.580;5.010;2022-10-13T15:50:11;24.92;;;13.65;;
24713;SDS011;12820;51.580;5.010;2022-10-13T15:55:13;23.73;;;13.95;;
24713;SDS011;12820;51.580;5.010;2022-10-13T16:00:15;25.80;;;14.95;;
24713;SDS011;12820;51.580;5.010;2022-10-13T16:05:18;28.92;;;15.00;;
24713;SDS011;12820;51.580;5.010;2022-10-13T16:10:20;30.00;;;14.85;;
24713;SDS011;12820;51.580;5.010;2022-10-13T16:15:23;28.50;;;14.75;;
24713;SDS011;12820;51.580;5.010;2022-10-13T16:20:25;27.27;;;14.75;;
24713;SDS011;12820;51.580;5.010;2022-10-13T16:25:27;26.55;;;15.38;;
24713;SDS011;12820;51.580;5.010;2022-10-13T16:30:30;31.80;;;15.45;;
24713;SDS011;12820;51.580;5.010;2022-10-13T16:35:32;32.13;;;14.80;;
24713;SDS011;12820;51.580;5.010;2022-10-13T16:40:36;30.83;;;15.65;;
24713;SDS011;12820;51.580;5.010;2022-10-13T16:45:39;26.80;;;15.82;;
24713;SDS011;12820;51.580;5.010;2022-10-13T16:51:04;26.20;;;16.15;;
24713;SDS011;12820;51.580;5.010;2022-10-13T16:56:08;27.40;;;16.38;;
24713;SDS011;12820;51.580;5.010;2022-10-13T17:01:10;30.08;;;15.82;;
24713;SDS011;12820;51.580;5.010;2022-10-13T17:06:13;30.42;;;17.20;;
24713;SDS011;12820;51.580;5.010;2022-10-13T17:11:23;30.90;;;17.17;;
24713;SDS011;12820;51.580;5.010;2022-10-13T17:16:27;27.75;;;16.13;;
24713;SDS011;12820;51.580;5.010;2022-10-13T17:21:29;22.05;;;13.27;;
24713;SDS011;12820;51.580;5.010;2022-10-13T17:26:31;26.10;;;16.55;;
24713;SDS011;12820;51.580;5.010;2022-10-13T17:31:33;30.73;;;17.50;;
24713;SDS011;12820;51.580;5.010;2022-10-13T17:36:35;31.15;;;18.75;;
24713;SDS011;12820;51.580;5.010;2022-10-13T17:41:44;33.35;;;17.52;;
24713;SDS011;12820;51.580;5.010;2022-10-13T17:46:46;33.38;;;16.90;;
24713;SDS011;12820;51.580;5.010;2022-10-13T17:51:50;30.63;;;17.85;;
24713;SDS011;12820;51.580;5.010;2022-10-13T17:56:54;31.10;;;18.65;;
24713;SDS011;12820;51.580;5.010;2022-10-13T18:01:57;29.77;;;18.45;;
24713;SDS011;12820;51.580;5.010;2022-10-13T18:06:59;32.28;;;17.98;;
24713;SDS011;12820;51.580;5.010;2022-10-13T18:12:02;32.78;;;17.42;;
24713;SDS011;12820;51.580;5.010;2022-10-13T18:17:04;31.67;;;18.02;;
24713;SDS011;12820;51.580;5.010;2022-10-13T18:22:06;29.88;;;18.08;;
24713;SDS011;12820;51.580;5.010;2022-10-13T18:27:08;28.20;;;17.17;;
24713;SDS011;12820;51.580;5.010;2022-10-13T18:32:11;33.08;;;19.02;;
24713;SDS011;12820;51.580;5.010;2022-10-13T18:37:13;35.33;;;18.38;;
24713;SDS011;12820;51.580;5.010;2022-10-13T18:42:16;31.85;;;17.98;;
24713;SDS011;12820;51.580;5.010;2022-10-13T18:47:18;33.33;;;18.10;;
24713;SDS011;12820;51.580;5.010;2022-10-13T18:52:20;34.63;;;19.58;;
24713;SDS011;12820;51.580;5.010;2022-10-13T18:57:22;35.63;;;19.05;;
24713;SDS011;12820;51.580;5.010;2022-10-13T19:02:24;32.35;;;19.15;;
24713;SDS011;12820;51.580;5.010;2022-10-13T19:07:26;28.85;;;18.08;;
24713;SDS011;12820;51.580;5.010;2022-10-13T19:12:31;33.28;;;20.00;;
24713;SDS011;12820;51.580;5.010;2022-10-13T19:17:35;33.83;;;19.45;;
24713;SDS011;12820;51.580;5.010;2022-10-13T19:22:37;35.80;;;20.67;;
24713;SDS011;12820;51.580;5.010;2022-10-13T19:27:39;34.13;;;20.73;;
24713;SDS011;12820;51.580;5.010;2022-10-13T19:32:41;33.03;;;20.02;;
24713;SDS011;12820;51.580;5.010;2022-10-13T19:37:43;32.88;;;20.90;;
24713;SDS011;12820;51.580;5.010;2022-10-13T19:42:45;31.35;;;20.58;;
24713;SDS011;12820;51.580;5.010;2022-10-13T19:47:48;31.65;;;20.35;;
24713;SDS011;12820;51.580;5.010;2022-10-13T19:52:50;36.05;;;21.83;;
24713;SDS011;12820;51.580;5.010;2022-10-13T19:57:52;39.97;;;22.67;;
24713;SDS011;12820;51.580;5.010;2022-10-13T20:02:55;40.78;;;23.17;;
24713;SDS011;12820;51.580;5.010;2022-10-13T20:07:57;39.35;;;22.65;;
24713;SDS011;12820;51.580;5.010;2022-10-13T20:12:59;42.05;;;23.70;;
24713;SDS011;12820;51.580;5.010;2022-10-13T20:18:01;41.13;;;24.10;;
24713;SDS011;12820;51.580;5.010;2022-10-13T20:23:04;39.88;;;24.25;;
24713;SDS011;12820;51.580;5.010;2022-10-13T20:28:08;38.85;;;24.15;;
24713;SDS011;12820;51.580;5.010;2022-10-13T20:33:10;40.55;;;24.23;;
24713;SDS011;12820;51.580;5.010;2022-10-13T20:38:13;41.40;;;22.98;;
24713;SDS011;12820;51.580;5.010;2022-10-13T20:43:17;42.05;;;23.90;;
24713;SDS011;12820;51.580;5.010;2022-10-13T20:48:32;45.58;;;24.17;;
24713;SDS011;12820;51.580;5.010;2022-10-13T20:53:57;44.37;;;23.27;;
24713;SDS011;12820;51.580;5.010;2022-10-13T20:59:06;39.05;;;24.27;;
24713;SDS011;12820;51.580;5.010;2022-10-13T21:04:10;42.05;;;24.55;;
24713;SDS011;12820;51.580;5.010;2022-10-13T21:09:12;48.45;;;27.13;;
24713;SDS011;12820;51.580;5.010;2022-10-13T21:14:15;44.38;;;26.05;;
24713;SDS011;12820;51.580;5.010;2022-10-13T21:19:17;46.92;;;27.10;;
24713;SDS011;12820;51.580;5.010;2022-10-13T21:24:19;49.63;;;26.67;;
24713;SDS011;12820;51.580;5.010;2022-10-13T21:29:22;51.58;;;26.98;;
24713;SDS011;12820;51.580;5.010;2022-10-13T21:34:24;47.20;;;26.15;;
24713;SDS011;12820;51.580;5.010;2022-10-13T21:39:26;47.50;;;25.95;;
24713;SDS011;12820;51.580;5.010;2022-10-13T21:44:28;48.58;;;26.65;;
24713;SDS011;12820;51.580;5.010;2022-10-13T21:49:31;50.40;;;25.77;;
24713;SDS011;12820;51.580;5.010;2022-10-13T21:54:33;47.90;;;25.70;;
24713;SDS011;12820;51.580;5.010;2022-10-13T21:59:36;47.78;;;27.08;;
24713;SDS011;12820;51.580;5.010;2022-10-13T22:04:38;47.33;;;25.38;;
24713;SDS011;12820;51.580;5.010;2022-10-13T22:09:40;45.85;;;25.50;;
24713;SDS011;12820;51.580;5.010;2022-10-13T22:14:42;48.65;;;26.73;;
24713;SDS011;12820;51.580;5.010;2022-10-13T22:19:44;50.38;;;26.73;;
24713;SDS011;12820;51.580;5.010;2022-10-13T22:24:46;57.40;;;28.02;;
24713;SDS011;12820;51.580;5.010;2022-10-13T22:29:48;47.70;;;25.15;;
24713;SDS011;12820;51.580;5.010;2022-10-13T22:34:50;51.63;;;27.10;;
24713;SDS011;12820;51.580;5.010;2022-10-13T22:39:52;51.05;;;27.35;;
24713;SDS011;12820;51.580;5.010;2022-10-13T22:44:54;56.00;;;28.38;;
24713;SDS011;12820;51.580;5.010;2022-10-13T22:49:56;54.95;;;28.30;;
24713;SDS011;12820;51.580;5.010;2022-10-13T22:54:58;51.50;;;27.15;;
24713;SDS011;12820;51.580;5.010;2022-10-13T23:00:00;50.72;;;27.30;;
24713;SDS011;12820;51.580;5.010;2022-10-13T23:05:03;53.35;;;26.40;;
24713;SDS011;12820;51.580;5.010;2022-10-13T23:10:05;57.90;;;27.70;;
24713;SDS011;12820;51.580;5.010;2022-10-13T23:15:08;52.80;;;26.75;;
24713;SDS011;12820;51.580;5.010;2022-10-13T23:20:10;60.17;;;28.50;;
24713;SDS011;12820;51.580;5.010;2022-10-13T23:25:13;53.15;;;26.50;;
24713;SDS011;12820;51.580;5.010;2022-10-13T23:30:15;54.30;;;28.05;;
24713;SDS011;12820;51.580;5.010;2022-10-13T23:35:17;50.20;;;26.83;;
24713;SDS011;12820;51.580;5.010;2022-10-13T23:40:19;56.88;;;27.77;;
24713;SDS011;12820;51.580;5.010;2022-10-13T23:45:21;57.92;;;29.05;;
24713;SDS011;12820;51.580;5.010;2022-10-13T23:50:23;55.40;;;27.00;;
24713;SDS011;12820;51.580;5.010;2022-10-13T23:55:25;52.33;;;26.17;;
